sensor_id;sensor_type;location;lat;lon;timestamp;temperature;humidity
69206;SHT30;56319;48.920;2.332;2023-08-01T00:02:17;24.32;58.00
69206;SHT30;56319;48.920;2.332;2023-08-01T00:04:42;24.32;58.00
69206;SHT30;56319;48.920;2.332;2023-08-01T00:07:08;24.31;58.03
69206;SHT30;56319;48.920;2.332;2023-08-01T00:09:33;24.32;58.05
69206;SHT30;56319;48.920;2.332;2023-08-01T00:11:59;24.32;58.04
69206;SHT30;56319;48.920;2.332;2023-08-01T00:14:24;24.32;58.01
69206;SHT30;56319;48.920;2.332;2023-08-01T00:16:50;24.34;58.02
69206;SHT30;56319;48.920;2.332;2023-08-01T00:19:16;24.32;58.02
69206;SHT30;56319;48.920;2.332;2023-08-01T00:21:41;24.31;58.01
69206;SHT30;56319;48.920;2.332;2023-08-01T00:24:07;24.32;58.03
69206;SHT30;56319;48.920;2.332;2023-08-01T00:26:34;24.32;58.07
69206;SHT30;56319;48.920;2.332;2023-08-01T00:29:00;24.32;58.11
69206;SHT30;56319;48.920;2.332;2023-08-01T00:31:26;24.31;58.13
69206;SHT30;56319;48.920;2.332;2023-08-01T00:33:51;24.34;58.16
69206;SHT30;56319;48.920;2.332;2023-08-01T00:36:17;24.34;58.20
69206;SHT30;56319;48.920;2.332;2023-08-01T00:38:42;24.31;58.23
69206;SHT30;56319;48.920;2.332;2023-08-01T00:41:09;24.31;58.25
69206;SHT30;56319;48.920;2.332;2023-08-01T00:43:35;24.31;58.18
69206;SHT30;56319;48.920;2.332;2023-08-01T00:46:03;24.31;58.26
69206;SHT30;56319;48.920;2.332;2023-08-01T00:48:30;24.30;58.30
69206;SHT30;56319;48.920;2.332;2023-08-01T00:50:58;24.30;58.29
69206;SHT30;56319;48.920;2.332;2023-08-01T00:53:25;24.30;58.35
69206;SHT30;56319;48.920;2.332;2023-08-01T00:55:52;24.30;58.36
69206;SHT30;56319;48.920;2.332;2023-08-01T00:58:19;24.30;58.33
69206;SHT30;56319;48.920;2.332;2023-08-01T01:00:45;24.28;58.30
69206;SHT30;56319;48.920;2.332;2023-08-01T01:03:11;24.30;58.34
69206;SHT30;56319;48.920;2.332;2023-08-01T01:05:39;24.28;58.30
69206;SHT30;56319;48.920;2.332;2023-08-01T01:08:05;24.28;58.31
69206;SHT30;56319;48.920;2.332;2023-08-01T01:10:31;24.28;58.39
69206;SHT30;56319;48.920;2.332;2023-08-01T01:12:57;24.28;58.36
69206;SHT30;56319;48.920;2.332;2023-08-01T01:15:23;24.28;58.44
69206;SHT30;56319;48.920;2.332;2023-08-01T01:17:48;24.28;58.47
69206;SHT30;56319;48.920;2.332;2023-08-01T01:20:14;24.28;58.52
69206;SHT30;56319;48.920;2.332;2023-08-01T01:22:40;24.28;58.52
69206;SHT30;56319;48.920;2.332;2023-08-01T01:25:07;24.28;58.49
69206;SHT30;56319;48.920;2.332;2023-08-01T01:27:34;24.28;58.52
69206;SHT30;56319;48.920;2.332;2023-08-01T01:30:01;24.27;58.52
69206;SHT30;56319;48.920;2.332;2023-08-01T01:32:29;24.27;58.54
69206;SHT30;56319;48.920;2.332;2023-08-01T01:34:54;24.28;58.52
69206;SHT30;56319;48.920;2.332;2023-08-01T01:37:20;24.27;58.60
69206;SHT30;56319;48.920;2.332;2023-08-01T01:39:45;24.25;58.55
69206;SHT30;56319;48.920;2.332;2023-08-01T01:42:11;24.27;58.57
69206;SHT30;56319;48.920;2.332;2023-08-01T01:44:38;24.27;58.55
69206;SHT30;56319;48.920;2.332;2023-08-01T01:47:04;24.24;58.55
69206;SHT30;56319;48.920;2.332;2023-08-01T01:49:30;24.24;58.55
69206;SHT30;56319;48.920;2.332;2023-08-01T01:51:55;24.24;58.55
69206;SHT30;56319;48.920;2.332;2023-08-01T01:54:21;24.25;58.59
69206;SHT30;56319;48.920;2.332;2023-08-01T01:56:46;24.24;58.57
69206;SHT30;56319;48.920;2.332;2023-08-01T01:59:12;24.25;58.59
69206;SHT30;56319;48.920;2.332;2023-08-01T02:01:37;24.24;58.57
69206;SHT30;56319;48.920;2.332;2023-08-01T02:04:03;24.24;58.67
69206;SHT30;56319;48.920;2.332;2023-08-01T02:06:28;24.27;58.64
69206;SHT30;56319;48.920;2.332;2023-08-01T02:08:54;24.27;58.58
69206;SHT30;56319;48.920;2.332;2023-08-01T02:11:19;24.23;58.59
69206;SHT30;56319;48.920;2.332;2023-08-01T02:13:45;24.24;58.57
69206;SHT30;56319;48.920;2.332;2023-08-01T02:16:11;24.23;58.61
69206;SHT30;56319;48.920;2.332;2023-08-01T02:18:36;24.23;58.56
69206;SHT30;56319;48.920;2.332;2023-08-01T02:21:02;24.21;58.61
69206;SHT30;56319;48.920;2.332;2023-08-01T02:23:28;24.24;58.58
69206;SHT30;56319;48.920;2.332;2023-08-01T02:25:54;24.24;58.64
69206;SHT30;56319;48.920;2.332;2023-08-01T02:28:20;24.21;58.57
69206;SHT30;56319;48.920;2.332;2023-08-01T02:30:45;24.18;58.53
69206;SHT30;56319;48.920;2.332;2023-08-01T02:33:11;24.23;58.56
69206;SHT30;56319;48.920;2.332;2023-08-01T02:35:37;24.21;58.55
69206;SHT30;56319;48.920;2.332;2023-08-01T02:38:03;24.21;58.55
69206;SHT30;56319;48.920;2.332;2023-08-01T02:40:28;24.21;58.53
69206;SHT30;56319;48.920;2.332;2023-08-01T02:42:54;24.21;58.49
69206;SHT30;56319;48.920;2.332;2023-08-01T02:45:20;24.20;58.52
69206;SHT30;56319;48.920;2.332;2023-08-01T02:47:45;24.20;58.50
69206;SHT30;56319;48.920;2.332;2023-08-01T02:50:11;24.18;58.52
69206;SHT30;56319;48.920;2.332;2023-08-01T02:52:37;24.17;58.49
69206;SHT30;56319;48.920;2.332;2023-08-01T02:55:02;24.18;58.48
69206;SHT30;56319;48.920;2.332;2023-08-01T02:57:28;24.16;58.48
69206;SHT30;56319;48.920;2.332;2023-08-01T02:59:53;24.17;58.48
69206;SHT30;56319;48.920;2.332;2023-08-01T03:02:19;24.17;58.47
69206;SHT30;56319;48.920;2.332;2023-08-01T03:04:44;24.17;58.47
69206;SHT30;56319;48.920;2.332;2023-08-01T03:07:10;24.17;58.48
69206;SHT30;56319;48.920;2.332;2023-08-01T03:09:35;24.16;58.46
69206;SHT30;56319;48.920;2.332;2023-08-01T03:12:01;24.17;58.43
69206;SHT30;56319;48.920;2.332;2023-08-01T03:14:26;24.16;58.39
69206;SHT30;56319;48.920;2.332;2023-08-01T03:16:52;24.16;58.43
69206;SHT30;56319;48.920;2.332;2023-08-01T03:19:17;24.14;58.39
69206;SHT30;56319;48.920;2.332;2023-08-01T03:21:43;24.13;58.39
69206;SHT30;56319;48.920;2.332;2023-08-01T03:24:09;24.13;58.34
69206;SHT30;56319;48.920;2.332;2023-08-01T03:26:35;24.13;58.38
69206;SHT30;56319;48.920;2.332;2023-08-01T03:29:01;24.13;58.32
69206;SHT30;56319;48.920;2.332;2023-08-01T03:31:27;24.13;58.30
69206;SHT30;56319;48.920;2.332;2023-08-01T03:33:52;24.14;58.30
69206;SHT30;56319;48.920;2.332;2023-08-01T03:36:18;24.12;58.29
69206;SHT30;56319;48.920;2.332;2023-08-01T03:38:43;24.12;58.28
69206;SHT30;56319;48.920;2.332;2023-08-01T03:41:09;24.12;58.28
69206;SHT30;56319;48.920;2.332;2023-08-01T03:43:34;24.09;58.32
69206;SHT30;56319;48.920;2.332;2023-08-01T03:46:00;24.13;58.23
69206;SHT30;56319;48.920;2.332;2023-08-01T03:48:26;24.07;58.22
69206;SHT30;56319;48.920;2.332;2023-08-01T03:50:51;24.12;58.18
69206;SHT30;56319;48.920;2.332;2023-08-01T03:53:17;24.07;58.15
69206;SHT30;56319;48.920;2.332;2023-08-01T03:55:44;24.09;58.17
69206;SHT30;56319;48.920;2.332;2023-08-01T03:58:09;24.07;58.13
69206;SHT30;56319;48.920;2.332;2023-08-01T04:00:35;24.07;58.11
69206;SHT30;56319;48.920;2.332;2023-08-01T04:03:01;24.06;58.05
69206;SHT30;56319;48.920;2.332;2023-08-01T04:05:28;24.04;58.10
69206;SHT30;56319;48.920;2.332;2023-08-01T04:07:53;24.06;58.03
69206;SHT30;56319;48.920;2.332;2023-08-01T04:10:21;24.04;58.04
69206;SHT30;56319;48.920;2.332;2023-08-01T04:12:47;24.06;57.99
69206;SHT30;56319;48.920;2.332;2023-08-01T04:15:12;24.04;57.95
69206;SHT30;56319;48.920;2.332;2023-08-01T04:17:37;24.03;57.91
69206;SHT30;56319;48.920;2.332;2023-08-01T04:20:03;24.04;57.90
69206;SHT30;56319;48.920;2.332;2023-08-01T04:22:29;24.03;57.85
69206;SHT30;56319;48.920;2.332;2023-08-01T04:24:55;24.04;57.81
69206;SHT30;56319;48.920;2.332;2023-08-01T04:27:20;24.00;57.79
69206;SHT30;56319;48.920;2.332;2023-08-01T04:29:47;24.00;57.77
69206;SHT30;56319;48.920;2.332;2023-08-01T04:32:13;24.02;57.74
69206;SHT30;56319;48.920;2.332;2023-08-01T04:34:41;24.02;57.68
69206;SHT30;56319;48.920;2.332;2023-08-01T04:37:07;23.99;57.73
69206;SHT30;56319;48.920;2.332;2023-08-01T04:39:33;24.00;57.68
69206;SHT30;56319;48.920;2.332;2023-08-01T04:41:59;23.99;57.64
69206;SHT30;56319;48.920;2.332;2023-08-01T04:44:24;23.99;57.64
69206;SHT30;56319;48.920;2.332;2023-08-01T04:46:50;23.99;57.62
69206;SHT30;56319;48.920;2.332;2023-08-01T04:49:15;23.96;57.62
69206;SHT30;56319;48.920;2.332;2023-08-01T04:51:41;23.99;57.56
69206;SHT30;56319;48.920;2.332;2023-08-01T04:54:06;23.97;57.53
69206;SHT30;56319;48.920;2.332;2023-08-01T04:56:32;23.95;57.51
69206;SHT30;56319;48.920;2.332;2023-08-01T04:58:57;23.96;57.48
69206;SHT30;56319;48.920;2.332;2023-08-01T05:01:23;23.95;57.50
69206;SHT30;56319;48.920;2.332;2023-08-01T05:03:48;23.96;57.49
69206;SHT30;56319;48.920;2.332;2023-08-01T05:06:14;23.95;57.45
69206;SHT30;56319;48.920;2.332;2023-08-01T05:08:40;23.97;57.41
69206;SHT30;56319;48.920;2.332;2023-08-01T05:11:05;23.93;57.39
69206;SHT30;56319;48.920;2.332;2023-08-01T05:13:31;23.92;57.36
69206;SHT30;56319;48.920;2.332;2023-08-01T05:15:56;23.93;57.32
69206;SHT30;56319;48.920;2.332;2023-08-01T05:18:22;23.92;57.35
69206;SHT30;56319;48.920;2.332;2023-08-01T05:20:47;23.93;57.32
69206;SHT30;56319;48.920;2.332;2023-08-01T05:23:13;23.92;57.25
69206;SHT30;56319;48.920;2.332;2023-08-01T05:25:38;23.95;57.24
69206;SHT30;56319;48.920;2.332;2023-08-01T05:28:04;23.93;57.22
69206;SHT30;56319;48.920;2.332;2023-08-01T05:30:29;23.93;57.19
69206;SHT30;56319;48.920;2.332;2023-08-01T05:32:55;23.95;57.20
69206;SHT30;56319;48.920;2.332;2023-08-01T05:35:21;23.93;57.10
69206;SHT30;56319;48.920;2.332;2023-08-01T05:37:47;23.93;57.16
69206;SHT30;56319;48.920;2.332;2023-08-01T05:40:12;23.92;57.11
69206;SHT30;56319;48.920;2.332;2023-08-01T05:42:38;23.89;57.08
69206;SHT30;56319;48.920;2.332;2023-08-01T05:45:04;23.92;57.02
69206;SHT30;56319;48.920;2.332;2023-08-01T05:47:30;23.90;57.02
69206;SHT30;56319;48.920;2.332;2023-08-01T05:49:55;23.90;57.02
69206;SHT30;56319;48.920;2.332;2023-08-01T05:52:22;23.90;56.98
69206;SHT30;56319;48.920;2.332;2023-08-01T05:54:53;23.90;56.92
69206;SHT30;56319;48.920;2.332;2023-08-01T05:57:19;23.90;56.91
69206;SHT30;56319;48.920;2.332;2023-08-01T05:59:44;23.89;56.94
69206;SHT30;56319;48.920;2.332;2023-08-01T06:02:10;23.90;56.84
69206;SHT30;56319;48.920;2.332;2023-08-01T06:04:35;23.87;56.86
69206;SHT30;56319;48.920;2.332;2023-08-01T06:07:01;23.89;56.80
69206;SHT30;56319;48.920;2.332;2023-08-01T06:09:26;23.87;56.77
69206;SHT30;56319;48.920;2.332;2023-08-01T06:11:52;23.90;56.70
69206;SHT30;56319;48.920;2.332;2023-08-01T06:14:17;23.93;56.72
69206;SHT30;56319;48.920;2.332;2023-08-01T06:16:43;23.89;56.71
69206;SHT30;56319;48.920;2.332;2023-08-01T06:19:08;23.90;56.66
69206;SHT30;56319;48.920;2.332;2023-08-01T06:21:34;23.90;56.64
69206;SHT30;56319;48.920;2.332;2023-08-01T06:23:59;23.89;56.57
69206;SHT30;56319;48.920;2.332;2023-08-01T06:26:25;23.90;56.60
69206;SHT30;56319;48.920;2.332;2023-08-01T06:28:50;23.90;56.55
69206;SHT30;56319;48.920;2.332;2023-08-01T06:31:19;23.89;56.52
69206;SHT30;56319;48.920;2.332;2023-08-01T06:33:44;23.90;56.51
69206;SHT30;56319;48.920;2.332;2023-08-01T06:36:10;23.89;56.47
69206;SHT30;56319;48.920;2.332;2023-08-01T06:38:36;23.86;56.47
69206;SHT30;56319;48.920;2.332;2023-08-01T06:41:01;23.90;56.45
69206;SHT30;56319;48.920;2.332;2023-08-01T06:43:29;23.89;56.35
69206;SHT30;56319;48.920;2.332;2023-08-01T06:45:54;23.87;56.34
69206;SHT30;56319;48.920;2.332;2023-08-01T06:48:20;23.89;56.35
69206;SHT30;56319;48.920;2.332;2023-08-01T06:50:45;23.86;56.32
69206;SHT30;56319;48.920;2.332;2023-08-01T06:53:11;23.89;56.29
69206;SHT30;56319;48.920;2.332;2023-08-01T06:55:36;23.90;56.27
69206;SHT30;56319;48.920;2.332;2023-08-01T06:58:01;23.90;56.22
69206;SHT30;56319;48.920;2.332;2023-08-01T07:00:27;23.89;56.12
69206;SHT30;56319;48.920;2.332;2023-08-01T07:02:52;23.87;56.15
69206;SHT30;56319;48.920;2.332;2023-08-01T07:05:18;23.87;56.12
69206;SHT30;56319;48.920;2.332;2023-08-01T07:07:43;23.87;56.08
69206;SHT30;56319;48.920;2.332;2023-08-01T07:10:09;23.86;56.06
69206;SHT30;56319;48.920;2.332;2023-08-01T07:12:34;23.87;56.03
69206;SHT30;56319;48.920;2.332;2023-08-01T07:15:00;23.86;55.99
69206;SHT30;56319;48.920;2.332;2023-08-01T07:17:25;23.87;55.96
69206;SHT30;56319;48.920;2.332;2023-08-01T07:19:51;23.89;55.94
69206;SHT30;56319;48.920;2.332;2023-08-01T07:22:16;23.89;55.86
69206;SHT30;56319;48.920;2.332;2023-08-01T07:24:41;23.87;55.86
69206;SHT30;56319;48.920;2.332;2023-08-01T07:27:07;23.86;55.85
69206;SHT30;56319;48.920;2.332;2023-08-01T07:29:32;23.87;55.80
69206;SHT30;56319;48.920;2.332;2023-08-01T07:31:58;23.87;55.74
69206;SHT30;56319;48.920;2.332;2023-08-01T07:34:23;23.89;55.72
69206;SHT30;56319;48.920;2.332;2023-08-01T07:36:48;23.87;55.68
69206;SHT30;56319;48.920;2.332;2023-08-01T07:39:15;23.87;55.62
69206;SHT30;56319;48.920;2.332;2023-08-01T07:41:40;23.87;55.59
69206;SHT30;56319;48.920;2.332;2023-08-01T07:44:06;23.86;55.58
69206;SHT30;56319;48.920;2.332;2023-08-01T07:46:32;23.89;55.50
69206;SHT30;56319;48.920;2.332;2023-08-01T07:48:58;23.87;55.49
69206;SHT30;56319;48.920;2.332;2023-08-01T07:51:25;23.89;55.49
69206;SHT30;56319;48.920;2.332;2023-08-01T07:53:51;23.87;55.42
69206;SHT30;56319;48.920;2.332;2023-08-01T07:56:18;23.89;55.43
69206;SHT30;56319;48.920;2.332;2023-08-01T07:58:44;23.90;55.36
69206;SHT30;56319;48.920;2.332;2023-08-01T08:01:09;23.89;55.33
69206;SHT30;56319;48.920;2.332;2023-08-01T08:03:35;23.89;55.31
69206;SHT30;56319;48.920;2.332;2023-08-01T08:06:00;23.92;55.29
69206;SHT30;56319;48.920;2.332;2023-08-01T08:08:27;23.92;55.23
69206;SHT30;56319;48.920;2.332;2023-08-01T08:10:52;23.90;55.21
69206;SHT30;56319;48.920;2.332;2023-08-01T08:13:18;23.93;55.16
69206;SHT30;56319;48.920;2.332;2023-08-01T08:15:43;23.93;55.17
69206;SHT30;56319;48.920;2.332;2023-08-01T08:18:09;23.93;55.08
69206;SHT30;56319;48.920;2.332;2023-08-01T08:20:41;23.93;55.12
69206;SHT30;56319;48.920;2.332;2023-08-01T08:23:08;23.95;55.12
69206;SHT30;56319;48.920;2.332;2023-08-01T08:25:34;23.93;54.96
69206;SHT30;56319;48.920;2.332;2023-08-01T08:27:59;23.97;54.98
69206;SHT30;56319;48.920;2.332;2023-08-01T08:30:25;23.97;54.91
69206;SHT30;56319;48.920;2.332;2023-08-01T08:32:50;23.96;54.87
69206;SHT30;56319;48.920;2.332;2023-08-01T08:35:16;23.96;54.87
69206;SHT30;56319;48.920;2.332;2023-08-01T08:37:41;23.95;54.87
69206;SHT30;56319;48.920;2.332;2023-08-01T08:40:07;24.00;54.83
69206;SHT30;56319;48.920;2.332;2023-08-01T08:42:34;23.97;54.78
69206;SHT30;56319;48.920;2.332;2023-08-01T08:45:01;23.99;54.76
69206;SHT30;56319;48.920;2.332;2023-08-01T08:47:28;24.00;54.76
69206;SHT30;56319;48.920;2.332;2023-08-01T08:49:55;24.00;54.72
69206;SHT30;56319;48.920;2.332;2023-08-01T08:52:24;23.99;54.65
69206;SHT30;56319;48.920;2.332;2023-08-01T08:54:51;23.97;54.61
69206;SHT30;56319;48.920;2.332;2023-08-01T08:57:18;23.99;54.60
69206;SHT30;56319;48.920;2.332;2023-08-01T08:59:44;24.02;54.56
69206;SHT30;56319;48.920;2.332;2023-08-01T09:02:10;23.99;54.53
69206;SHT30;56319;48.920;2.332;2023-08-01T09:04:36;24.00;54.50
69206;SHT30;56319;48.920;2.332;2023-08-01T09:07:02;24.02;54.44
69206;SHT30;56319;48.920;2.332;2023-08-01T09:09:32;24.02;54.40
69206;SHT30;56319;48.920;2.332;2023-08-01T09:11:58;24.04;54.38
69206;SHT30;56319;48.920;2.332;2023-08-01T09:14:24;24.03;54.31
69206;SHT30;56319;48.920;2.332;2023-08-01T09:16:52;24.03;54.29
69206;SHT30;56319;48.920;2.332;2023-08-01T09:19:19;24.03;54.30
69206;SHT30;56319;48.920;2.332;2023-08-01T09:21:45;24.03;54.26
69206;SHT30;56319;48.920;2.332;2023-08-01T09:24:12;24.07;54.28
69206;SHT30;56319;48.920;2.332;2023-08-01T09:26:39;24.07;54.22
69206;SHT30;56319;48.920;2.332;2023-08-01T09:29:05;24.07;54.20
69206;SHT30;56319;48.920;2.332;2023-08-01T09:31:33;24.06;54.20
69206;SHT30;56319;48.920;2.332;2023-08-01T09:33:59;24.07;54.08
69206;SHT30;56319;48.920;2.332;2023-08-01T09:36:25;24.09;54.08
69206;SHT30;56319;48.920;2.332;2023-08-01T09:38:51;24.09;54.05
69206;SHT30;56319;48.920;2.332;2023-08-01T09:41:17;24.07;54.01
69206;SHT30;56319;48.920;2.332;2023-08-01T09:43:45;24.12;53.91
69206;SHT30;56319;48.920;2.332;2023-08-01T09:46:12;24.12;53.89
69206;SHT30;56319;48.920;2.332;2023-08-01T09:48:39;24.12;53.82
69206;SHT30;56319;48.920;2.332;2023-08-01T09:51:14;24.10;53.77
69206;SHT30;56319;48.920;2.332;2023-08-01T09:53:59;24.13;53.72
69206;SHT30;56319;48.920;2.332;2023-08-01T09:56:26;24.13;53.74
69206;SHT30;56319;48.920;2.332;2023-08-01T09:58:54;24.12;53.67
69206;SHT30;56319;48.920;2.332;2023-08-01T10:01:22;24.13;53.64
69206;SHT30;56319;48.920;2.332;2023-08-01T10:03:50;24.10;53.65
69206;SHT30;56319;48.920;2.332;2023-08-01T10:06:19;24.12;53.59
69206;SHT30;56319;48.920;2.332;2023-08-01T10:08:46;24.10;53.53
69206;SHT30;56319;48.920;2.332;2023-08-01T10:11:14;24.12;53.54
69206;SHT30;56319;48.920;2.332;2023-08-01T10:13:42;24.10;53.50
69206;SHT30;56319;48.920;2.332;2023-08-01T10:16:08;24.10;53.48
69206;SHT30;56319;48.920;2.332;2023-08-01T10:18:34;24.09;53.36
69206;SHT30;56319;48.920;2.332;2023-08-01T10:21:04;24.09;53.35
69206;SHT30;56319;48.920;2.332;2023-08-01T10:23:32;24.07;53.38
69206;SHT30;56319;48.920;2.332;2023-08-01T10:25:59;24.09;53.35
69206;SHT30;56319;48.920;2.332;2023-08-01T10:31:31;24.07;53.30
69206;SHT30;56319;48.920;2.332;2023-08-01T10:34:16;24.07;53.25
69206;SHT30;56319;48.920;2.332;2023-08-01T10:36:54;24.09;53.23
69206;SHT30;56319;48.920;2.332;2023-08-01T10:39:22;24.10;53.15
69206;SHT30;56319;48.920;2.332;2023-08-01T10:41:57;24.09;53.12
69206;SHT30;56319;48.920;2.332;2023-08-01T10:44:24;24.07;53.10
69206;SHT30;56319;48.920;2.332;2023-08-01T10:46:55;24.09;53.08
69206;SHT30;56319;48.920;2.332;2023-08-01T10:49:34;24.10;53.10
69206;SHT30;56319;48.920;2.332;2023-08-01T10:52:02;24.09;53.05
69206;SHT30;56319;48.920;2.332;2023-08-01T10:54:28;24.10;52.99
69206;SHT30;56319;48.920;2.332;2023-08-01T10:56:56;24.10;52.93
69206;SHT30;56319;48.920;2.332;2023-08-01T10:59:24;24.10;52.95
69206;SHT30;56319;48.920;2.332;2023-08-01T11:01:52;24.09;52.91
69206;SHT30;56319;48.920;2.332;2023-08-01T11:04:19;24.07;52.90
69206;SHT30;56319;48.920;2.332;2023-08-01T11:06:46;24.12;52.84
69206;SHT30;56319;48.920;2.332;2023-08-01T11:09:31;24.12;52.82
69206;SHT30;56319;48.920;2.332;2023-08-01T11:11:58;24.13;52.77
69206;SHT30;56319;48.920;2.332;2023-08-01T11:14:26;24.12;52.75
69206;SHT30;56319;48.920;2.332;2023-08-01T11:16:54;24.13;52.65
69206;SHT30;56319;48.920;2.332;2023-08-01T11:19:25;24.13;52.65
69206;SHT30;56319;48.920;2.332;2023-08-01T11:21:52;24.16;52.58
69206;SHT30;56319;48.920;2.332;2023-08-01T11:24:19;24.18;52.50
69206;SHT30;56319;48.920;2.332;2023-08-01T11:26:47;24.18;52.52
69206;SHT30;56319;48.920;2.332;2023-08-01T11:29:14;24.21;52.47
69206;SHT30;56319;48.920;2.332;2023-08-01T11:31:40;24.20;52.47
69206;SHT30;56319;48.920;2.332;2023-08-01T11:34:08;24.20;52.40
69206;SHT30;56319;48.920;2.332;2023-08-01T11:36:36;24.21;52.41
69206;SHT30;56319;48.920;2.332;2023-08-01T11:39:01;24.20;52.36
69206;SHT30;56319;48.920;2.332;2023-08-01T11:41:28;24.27;52.28
69206;SHT30;56319;48.920;2.332;2023-08-01T11:43:53;24.24;52.28
69206;SHT30;56319;48.920;2.332;2023-08-01T11:46:20;24.25;52.27
69206;SHT30;56319;48.920;2.332;2023-08-01T11:48:47;24.27;52.24
69206;SHT30;56319;48.920;2.332;2023-08-01T11:51:13;24.25;52.22
69206;SHT30;56319;48.920;2.332;2023-08-01T11:53:39;24.25;52.20
69206;SHT30;56319;48.920;2.332;2023-08-01T11:56:05;24.25;52.09
69206;SHT30;56319;48.920;2.332;2023-08-01T11:58:35;24.30;52.06
69206;SHT30;56319;48.920;2.332;2023-08-01T12:01:14;24.28;52.00
69206;SHT30;56319;48.920;2.332;2023-08-01T12:03:46;24.25;51.95
69206;SHT30;56319;48.920;2.332;2023-08-01T12:06:12;24.23;52.08
69206;SHT30;56319;48.920;2.332;2023-08-01T12:08:40;24.25;52.01
69206;SHT30;56319;48.920;2.332;2023-08-01T12:11:06;24.21;51.99
69206;SHT30;56319;48.920;2.332;2023-08-01T12:13:42;24.21;52.00
69206;SHT30;56319;48.920;2.332;2023-08-01T12:16:07;24.21;51.91
69206;SHT30;56319;48.920;2.332;2023-08-01T12:18:33;24.23;51.88
69206;SHT30;56319;48.920;2.332;2023-08-01T12:20:58;24.23;51.79
69206;SHT30;56319;48.920;2.332;2023-08-01T12:23:24;24.23;51.79
69206;SHT30;56319;48.920;2.332;2023-08-01T12:25:49;24.24;51.78
69206;SHT30;56319;48.920;2.332;2023-08-01T12:28:15;24.24;51.74
69206;SHT30;56319;48.920;2.332;2023-08-01T12:30:41;24.24;51.73
69206;SHT30;56319;48.920;2.332;2023-08-01T12:33:08;24.25;51.66
69206;SHT30;56319;48.920;2.332;2023-08-01T12:35:33;24.27;51.69
69206;SHT30;56319;48.920;2.332;2023-08-01T12:37:59;24.28;51.62
69206;SHT30;56319;48.920;2.332;2023-08-01T12:40:25;24.27;51.60
69206;SHT30;56319;48.920;2.332;2023-08-01T12:42:50;24.31;51.54
69206;SHT30;56319;48.920;2.332;2023-08-01T12:45:16;24.32;51.49
69206;SHT30;56319;48.920;2.332;2023-08-01T12:47:41;24.34;51.40
69206;SHT30;56319;48.920;2.332;2023-08-01T12:50:07;24.37;51.49
69206;SHT30;56319;48.920;2.332;2023-08-01T12:52:33;24.34;51.47
69206;SHT30;56319;48.920;2.332;2023-08-01T12:54:58;24.37;51.39
69206;SHT30;56319;48.920;2.332;2023-08-01T12:57:25;24.38;51.38
69206;SHT30;56319;48.920;2.332;2023-08-01T12:59:50;24.40;51.33
69206;SHT30;56319;48.920;2.332;2023-08-01T13:02:16;24.41;51.33
69206;SHT30;56319;48.920;2.332;2023-08-01T13:04:41;24.42;51.18
69206;SHT30;56319;48.920;2.332;2023-08-01T13:07:07;24.44;51.12
69206;SHT30;56319;48.920;2.332;2023-08-01T13:09:33;24.48;51.12
69206;SHT30;56319;48.920;2.332;2023-08-01T13:11:58;24.49;51.02
69206;SHT30;56319;48.920;2.332;2023-08-01T13:14:25;24.51;51.00
69206;SHT30;56319;48.920;2.332;2023-08-01T13:16:51;24.52;50.91
69206;SHT30;56319;48.920;2.332;2023-08-01T13:19:17;24.55;50.86
69206;SHT30;56319;48.920;2.332;2023-08-01T13:21:43;24.59;50.81
69206;SHT30;56319;48.920;2.332;2023-08-01T13:24:09;24.61;50.75
69206;SHT30;56319;48.920;2.332;2023-08-01T13:26:34;24.66;50.64
69206;SHT30;56319;48.920;2.332;2023-08-01T13:29:01;24.68;50.62
69206;SHT30;56319;48.920;2.332;2023-08-01T13:31:27;24.72;50.56
69206;SHT30;56319;48.920;2.332;2023-08-01T13:33:54;24.68;50.57
69206;SHT30;56319;48.920;2.332;2023-08-01T13:36:20;24.71;50.53
69206;SHT30;56319;48.920;2.332;2023-08-01T13:38:46;24.73;50.43
69206;SHT30;56319;48.920;2.332;2023-08-01T13:41:13;24.76;50.42
69206;SHT30;56319;48.920;2.332;2023-08-01T13:43:39;24.82;50.37
69206;SHT30;56319;48.920;2.332;2023-08-01T13:46:24;24.82;50.31
69206;SHT30;56319;48.920;2.332;2023-08-01T13:48:50;24.87;50.29
69206;SHT30;56319;48.920;2.332;2023-08-01T13:51:15;24.90;50.27
69206;SHT30;56319;48.920;2.332;2023-08-01T13:53:41;24.89;50.19
69206;SHT30;56319;48.920;2.332;2023-08-01T13:56:08;24.92;50.15
69206;SHT30;56319;48.920;2.332;2023-08-01T13:58:34;24.94;50.14
69206;SHT30;56319;48.920;2.332;2023-08-01T14:01:03;24.94;50.12
69206;SHT30;56319;48.920;2.332;2023-08-01T14:03:30;24.96;50.11
69206;SHT30;56319;48.920;2.332;2023-08-01T14:05:56;24.94;50.12
69206;SHT30;56319;48.920;2.332;2023-08-01T14:08:21;24.94;50.04
69206;SHT30;56319;48.920;2.332;2023-08-01T14:10:47;24.94;50.11
69206;SHT30;56319;48.920;2.332;2023-08-01T14:13:12;24.96;50.09
69206;SHT30;56319;48.920;2.332;2023-08-01T14:15:38;24.94;50.10
69206;SHT30;56319;48.920;2.332;2023-08-01T14:18:03;24.99;50.06
69206;SHT30;56319;48.920;2.332;2023-08-01T14:20:29;24.97;50.06
69206;SHT30;56319;48.920;2.332;2023-08-01T14:22:54;25.02;50.04
69206;SHT30;56319;48.920;2.332;2023-08-01T14:25:20;25.02;50.02
69206;SHT30;56319;48.920;2.332;2023-08-01T14:27:45;25.00;50.03
69206;SHT30;56319;48.920;2.332;2023-08-01T14:30:11;25.00;50.02
69206;SHT30;56319;48.920;2.332;2023-08-01T14:32:37;25.00;50.03
69206;SHT30;56319;48.920;2.332;2023-08-01T14:35:04;24.96;50.05
69206;SHT30;56319;48.920;2.332;2023-08-01T14:37:30;24.97;50.03
69206;SHT30;56319;48.920;2.332;2023-08-01T14:39:55;24.97;50.04
69206;SHT30;56319;48.920;2.332;2023-08-01T14:42:21;24.94;50.01
69206;SHT30;56319;48.920;2.332;2023-08-01T14:44:52;24.93;50.02
69206;SHT30;56319;48.920;2.332;2023-08-01T14:47:18;24.93;50.06
69206;SHT30;56319;48.920;2.332;2023-08-01T14:49:44;24.92;50.08
69206;SHT30;56319;48.920;2.332;2023-08-01T14:52:10;24.90;50.09
69206;SHT30;56319;48.920;2.332;2023-08-01T14:54:35;24.89;50.06
69206;SHT30;56319;48.920;2.332;2023-08-01T14:57:02;24.89;50.08
69206;SHT30;56319;48.920;2.332;2023-08-01T14:59:28;24.87;50.09
69206;SHT30;56319;48.920;2.332;2023-08-01T15:01:53;24.87;50.15
69206;SHT30;56319;48.920;2.332;2023-08-01T15:04:19;24.86;50.07
69206;SHT30;56319;48.920;2.332;2023-08-01T15:06:45;24.85;50.16
69206;SHT30;56319;48.920;2.332;2023-08-01T15:09:10;24.83;50.19
69206;SHT30;56319;48.920;2.332;2023-08-01T15:11:36;24.82;50.19
69206;SHT30;56319;48.920;2.332;2023-08-01T15:14:01;24.80;50.23
69206;SHT30;56319;48.920;2.332;2023-08-01T15:16:27;24.83;50.30
69206;SHT30;56319;48.920;2.332;2023-08-01T15:18:52;24.82;50.26
69206;SHT30;56319;48.920;2.332;2023-08-01T15:21:18;24.80;50.30
69206;SHT30;56319;48.920;2.332;2023-08-01T15:23:45;24.80;50.28
69206;SHT30;56319;48.920;2.332;2023-08-01T15:26:11;24.83;50.27
69206;SHT30;56319;48.920;2.332;2023-08-01T15:28:37;24.82;50.28